Time;durP1;ratioP1;P1;durP2;ratioP2;P2;SDS_P1;SDS_P2;PMS_P1;PMS_P2;Temp;Humidity;BMP_temperature;BMP_pressure;BME280_temperature;BME280_humidity;BME280_pressure;Samples;Min_cycle;Max_cycle;Signal;HPM_P1;HPM_P2
2022/08/11 00:01:22;;;;;;;6.35;2.63;;;;;;;30.98;43.79;99121.03;4886814;29;20040;-86
2022/08/11 00:04:08;;;;;;;3.70;2.55;;;;;;;30.90;44.01;99123.75;4902267;29;20037;-88
2022/08/11 00:06:39;;;;;;;4.40;2.50;;;;;;;30.85;44.14;99118.88;4901230;29;20036;-87
2022/08/11 00:09:13;;;;;;;4.32;2.55;;;;;;;30.88;43.83;99120.38;4901804;29;20045;-87
2022/08/11 00:11:42;;;;;;;4.80;2.75;;;;;;;30.89;43.93;99122.06;4905975;29;20055;-87
2022/08/11 00:14:28;;;;;;;4.40;2.63;;;;;;;30.89;44.71;99113.97;4903526;29;20024;-87
2022/08/11 00:17:03;;;;;;;5.13;2.58;;;;;;;30.83;44.35;99110.09;4901635;29;20072;-86
2022/08/11 00:19:33;;;;;;;5.05;2.78;;;;;;;30.79;45.24;99117.66;4903323;29;20037;-86
2022/08/11 00:22:00;;;;;;;4.40;2.65;;;;;;;30.80;44.81;99115.84;4898417;29;20053;-86
2022/08/11 00:24:33;;;;;;;4.25;2.83;;;;;;;30.74;45.54;99116.50;4894733;29;20040;-89
2022/08/11 00:27:10;;;;;;;4.45;2.90;;;;;;;30.72;45.91;99115.81;4890756;29;20100;-86
2022/08/11 00:29:36;;;;;;;4.22;2.47;;;;;;;30.67;46.28;99111.75;4889457;29;20501;-85
2022/08/11 00:32:05;;;;;;;3.58;2.60;;;;;;;30.66;46.34;99111.91;4899404;29;20025;-88
2022/08/11 00:34:36;;;;;;;3.88;2.58;;;;;;;30.60;46.39;99115.25;4902301;29;20044;-87
2022/08/11 00:37:18;;;;;;;3.95;2.50;;;;;;;30.54;47.12;99114.06;4899965;29;20051;-87
2022/08/11 00:39:49;;;;;;;5.65;2.78;;;;;;;30.52;47.22;99113.41;4901168;29;20028;-86
2022/08/11 00:42:47;;;;;;;5.10;2.50;;;;;;;30.41;47.65;99117.25;4902089;29;20039;-87
2022/08/11 00:46:05;;;;;;;4.53;2.97;;;;;;;30.25;47.82;99108.13;4902547;29;20048;-87
2022/08/11 00:49:30;;;;;;;4.10;2.72;;;;;;;30.27;48.16;99122.22;4903283;29;20025;-88
2022/08/11 00:52:29;;;;;;;4.07;2.65;;;;;;;30.23;48.50;99115.53;4868291;29;20022;-90
2022/08/11 00:55:21;;;;;;;4.57;2.83;;;;;;;30.18;48.18;99120.53;4884431;29;20037;-89
2022/08/11 00:57:57;;;;;;;5.03;2.95;;;;;;;30.11;48.72;99128.41;4884013;29;20029;-88
2022/08/11 01:00:43;;;;;;;4.55;3.03;;;;;;;29.99;49.35;99133.22;4882109;29;20037;-88
2022/08/11 01:04:09;;;;;;;5.05;2.47;;;;;;;30.00;49.62;99126.84;4865287;29;20030;-86
2022/08/11 01:06:59;;;;;;;5.20;3.30;;;;;;;30.02;49.05;99130.19;4903468;29;20051;-87
2022/08/11 01:09:46;;;;;;;4.25;2.83;;;;;;;29.96;49.45;99140.75;4900478;29;20092;-87
2022/08/11 01:12:49;;;;;;;6.13;2.80;;;;;;;29.90;49.72;99142.25;4918596;29;20040;-87
2022/08/11 01:15:50;;;;;;;4.07;2.67;;;;;;;29.91;50.18;99143.91;4899111;29;20020;-86
2022/08/11 01:18:49;;;;;;;4.03;2.92;;;;;;;29.89;49.80;99145.94;4900469;29;20512;-86
2022/08/11 01:21:33;;;;;;;4.90;2.67;;;;;;;29.94;50.02;99146.31;4897151;29;20048;-86
2022/08/11 01:24:04;;;;;;;5.57;2.80;;;;;;;29.93;50.29;99147.31;4898698;29;20100;-85
2022/08/11 01:26:36;;;;;;;4.78;3.05;;;;;;;29.92;50.14;99153.66;4899378;29;20033;-87
2022/08/11 01:29:24;;;;;;;4.45;2.72;;;;;;;29.85;50.37;99149.94;4900879;29;20029;-87
2022/08/11 01:32:08;;;;;;;4.25;3.00;;;;;;;29.84;50.84;99146.44;4905947;29;20041;-86
2022/08/11 01:34:52;;;;;;;4.85;2.72;;;;;;;29.81;51.09;99148.56;4908521;29;20047;-86
2022/08/11 01:38:09;;;;;;;4.40;2.72;;;;;;;29.77;51.65;99139.97;4907538;29;20035;-86
2022/08/11 01:41:22;;;;;;;4.63;2.85;;;;;;;29.72;52.23;99143.16;4905171;29;20072;-87
2022/08/11 01:48:09;;;;;;;5.43;3.08;;;;;;;29.65;52.56;99147.47;4922816;29;20023;-87
2022/08/11 01:50:39;;;;;;;4.82;2.92;;;;;;;29.72;52.62;99151.22;4913155;29;20088;-87
2022/08/11 01:53:42;;;;;;;4.70;3.05;;;;;;;29.61;53.15;99160.41;4896444;29;20057;-88
2022/08/11 01:56:36;;;;;;;4.75;2.67;;;;;;;29.62;53.17;99155.84;4908680;29;20020;-88
2022/08/11 01:59:14;;;;;;;3.88;3.05;;;;;;;29.65;52.40;99166.31;4908730;29;20009;-87
2022/08/11 02:02:01;;;;;;;6.38;3.28;;;;;;;29.63;53.19;99162.91;4924729;29;20032;-87
2022/08/11 02:04:54;;;;;;;5.07;3.47;;;;;;;29.67;52.91;99158.91;4906847;29;20032;-87
2022/08/11 02:07:55;;;;;;;5.53;3.58;;;;;;;29.66;53.17;99167.97;4907865;29;20034;-87
2022/08/11 02:14:01;;;;;;;5.20;2.75;;;;;;;29.73;52.53;99178.97;4924044;29;20057;-87
2022/08/11 02:16:52;;;;;;;5.18;3.45;;;;;;;29.66;52.71;99177.88;4907085;29;20036;-88
2022/08/11 02:25:47;;;;;;;5.97;3.33;;;;;;;29.66;52.63;99178.75;4915883;29;20063;-87
2022/08/11 02:28:30;;;;;;;4.50;3.33;;;;;;;29.71;52.78;99180.94;4889347;29;20036;-86
2022/08/11 02:34:14;;;;;;;4.40;3.47;;;;;;;29.63;53.36;99184.41;4912470;29;20026;-87
2022/08/11 02:37:44;;;;;;;4.65;3.20;;;;;;;29.70;52.92;99180.13;4899012;29;20470;-88
2022/08/11 02:40:25;;;;;;;5.68;3.45;;;;;;;29.65;53.23;99182.44;4853960;29;20033;-87
2022/08/11 02:43:18;;;;;;;4.85;3.50;;;;;;;29.61;53.01;99186.44;4916353;29;20052;-86
2022/08/11 02:45:53;;;;;;;5.38;3.25;;;;;;;29.57;53.38;99190.44;4900980;29;20111;-88
2022/08/11 02:51:53;;;;;;;4.45;3.80;;;;;;;29.36;54.54;99188.91;4918658;29;20059;-88
2022/08/11 02:54:38;;;;;;;4.90;3.50;;;;;;;29.38;54.47;99186.91;4906070;29;20040;-87
2022/08/11 02:57:23;;;;;;;4.80;3.58;;;;;;;29.38;54.13;99186.91;4903953;29;20135;-88
2022/08/11 03:00:14;;;;;;;6.68;4.22;;;;;;;29.36;54.19;99194.28;4924109;29;20092;-88
2022/08/11 03:03:06;;;;;;;5.18;3.90;;;;;;;29.37;54.49;99190.59;4896282;29;20021;-89
2022/08/11 03:06:34;;;;;;;7.57;4.10;;;;;;;29.37;54.55;99185.22;4924392;29;20028;-90
2022/08/11 03:18:47;;;;;;;6.95;3.88;;;;;;;29.20;54.78;99179.69;4868191;29;20049;-86
2022/08/11 03:21:43;;;;;;;5.75;4.10;;;;;;;29.27;54.72;99190.69;4901443;29;20067;-87
2022/08/11 03:24:24;;;;;;;7.03;4.53;;;;;;;29.26;55.23;99188.16;4902345;29;20036;-86
2022/08/11 03:27:19;;;;;;;4.95;3.97;;;;;;;29.28;54.47;99184.31;4903808;29;20032;-87
2022/08/11 03:30:10;;;;;;;6.25;4.57;;;;;;;29.26;54.98;99189.00;4906158;29;20016;-87
2022/08/11 03:36:20;;;;;;;5.50;4.90;;;;;;;29.21;55.41;99205.56;4910187;29;20031;-87
2022/08/11 03:38:58;;;;;;;6.38;4.55;;;;;;;29.25;55.24;99205.28;4905938;29;20084;-88
2022/08/11 03:42:15;;;;;;;6.18;4.75;;;;;;;29.13;55.92;99208.19;4906740;29;20044;-87
2022/08/11 03:45:13;;;;;;;6.72;4.85;;;;;;;29.13;55.81;99208.19;4899160;29;20024;-87
2022/08/11 03:48:03;;;;;;;7.75;5.38;;;;;;;29.19;55.28;99210.25;4907614;29;20027;-88
2022/08/11 03:50:35;;;;;;;6.97;5.28;;;;;;;29.18;55.84;99213.09;4904020;29;20095;-87
2022/08/11 03:53:48;;;;;;;6.45;5.30;;;;;;;29.20;55.24;99209.25;4905621;29;20036;-88
2022/08/11 03:56:38;;;;;;;5.70;5.10;;;;;;;29.21;55.42;99213.63;4900995;29;20036;-86
2022/08/11 03:59:38;;;;;;;6.38;4.82;;;;;;;29.21;55.36;99218.16;4895845;29;20463;-86
2022/08/11 04:02:29;;;;;;;6.38;5.65;;;;;;;29.21;55.49;99213.63;4896801;29;20039;-86
2022/08/11 04:05:10;;;;;;;7.75;4.88;;;;;;;29.24;55.49;99223.22;4895460;29;20031;-86
2022/08/11 04:07:59;;;;;;;6.60;5.05;;;;;;;29.23;55.93;99226.09;4894580;29;20056;-86
2022/08/11 04:10:46;;;;;;;6.43;5.00;;;;;;;29.24;55.26;99233.16;4891990;29;20036;-86
2022/08/11 04:13:42;;;;;;;8.23;5.18;;;;;;;29.25;56.08;99230.31;4890298;29;20487;-86
2022/08/11 04:16:43;;;;;;;7.32;5.93;;;;;;;29.24;55.70;99233.16;4893358;29;20047;-86
2022/08/11 04:19:29;;;;;;;9.25;5.45;;;;;;;29.32;55.01;99238.56;4893436;29;20033;-86
2022/08/11 04:22:38;;;;;;;6.57;5.20;;;;;;;29.34;55.55;99239.25;4892897;29;20132;-86
2022/08/11 04:25:33;;;;;;;8.90;6.22;;;;;;;29.36;55.81;99237.28;4891298;29;20068;-86
2022/08/11 04:28:32;;;;;;;7.03;5.75;;;;;;;29.39;54.78;99246.88;4887502;29;20041;-86
2022/08/11 04:31:26;;;;;;;6.47;5.30;;;;;;;29.43;54.88;99243.72;4899267;29;20029;-86
2022/08/11 04:34:23;;;;;;;8.00;5.35;;;;;;;29.42;55.13;99246.56;4902188;29;20029;-86
2022/08/11 04:40:30;;;;;;;6.68;5.60;;;;;;;29.42;55.20;99255.47;4905787;29;19918;-87
2022/08/11 04:43:21;;;;;;;6.63;5.70;;;;;;;29.37;55.50;99251.53;4894898;29;20044;-86
2022/08/11 04:46:13;;;;;;;7.00;5.20;;;;;;;29.38;55.40;99256.78;4899315;29;20043;-87
2022/08/11 05:07:39;;;;;;;6.13;5.13;;;;;;;29.11;55.70;99239.75;4919142;29;20023;-87
2022/08/11 05:10:43;;;;;;;7.07;4.72;;;;;;;29.11;55.78;99258.53;4920166;29;20029;-86
2022/08/11 05:37:17;;;;;;;6.40;5.25;;;;;;;28.89;56.47;99257.97;4913029;29;20091;-87
2022/08/11 05:56:58;;;;;;;8.70;5.50;;;;;;;28.81;56.63;99271.28;4884622;29;20402;-85
2022/08/11 05:59:39;;;;;;;7.65;5.68;;;;;;;28.84;56.27;99265.59;4890730;29;20382;-88
2022/08/11 06:02:07;;;;;;;7.32;5.50;;;;;;;28.83;56.15;99265.75;4899963;29;20045;-87
2022/08/11 06:04:38;;;;;;;7.68;5.30;;;;;;;28.84;56.60;99260.22;4876948;29;20127;-87
2022/08/11 06:07:09;;;;;;;6.82;5.60;;;;;;;28.74;56.81;99262.13;4897033;29;20065;-88
2022/08/11 06:09:56;;;;;;;6.88;5.45;;;;;;;28.71;56.83;99259.75;4892034;29;20033;-87
2022/08/11 06:12:25;;;;;;;6.30;5.13;;;;;;;28.76;56.62;99257.47;4876737;29;20070;-87
2022/08/11 06:15:02;;;;;;;8.23;5.80;;;;;;;28.71;57.05;99259.75;4879283;29;20028;-88
2022/08/11 06:17:34;;;;;;;7.88;6.00;;;;;;;28.73;56.72;99260.44;4889984;29;20075;-87
2022/08/11 06:20:08;;;;;;;6.40;5.35;;;;;;;28.68;56.69;99253.66;4889468;29;20029;-87
2022/08/11 06:22:40;;;;;;;6.93;5.72;;;;;;;28.59;57.35;99243.84;4876989;29;20044;-88
2022/08/11 07:02:26;;;;;;;9.25;6.00;;;;;;;28.81;57.35;99260.53;4900065;29;20086;-88
2022/08/11 07:05:26;;;;;;;8.70;6.40;;;;;;;28.89;56.60;99252.59;4901582;29;20005;-88
2022/08/11 07:17:13;;;;;;;6.88;5.88;;;;;;;28.81;57.40;99241.75;4887101;29;20098;-87
2022/08/11 07:31:07;;;;;;;7.35;6.22;;;;;;;29.07;57.22;99251.78;4894003;29;20100;-86
2022/08/11 07:34:26;;;;;;;6.70;5.53;;;;;;;29.08;57.14;99257.00;4879867;29;20037;-86
2022/08/11 07:36:57;;;;;;;6.30;5.68;;;;;;;29.13;56.84;99251.16;4883424;29;20439;-88
2022/08/11 07:39:26;;;;;;;7.68;6.20;;;;;;;29.13;57.31;99253.84;4893012;29;20028;-87
2022/08/11 07:41:57;;;;;;;7.88;5.43;;;;;;;29.15;57.12;99254.53;4904038;29;20016;-88
2022/08/11 07:44:27;;;;;;;8.45;5.75;;;;;;;29.19;56.48;99255.94;4885181;29;20043;-89
2022/08/11 07:52:33;;;;;;;8.90;6.13;;;;;;;29.30;56.24;99254.03;4921576;29;20042;-88
2022/08/11 07:55:24;;;;;;;9.70;6.40;;;;;;;29.29;55.95;99247.78;4920500;29;20100;-88
2022/08/11 08:17:56;;;;;;;7.10;5.20;;;;;;;29.55;55.43;99243.50;4914760;29;19996;-89
2022/08/11 08:20:48;;;;;;;13.65;6.40;;;;;;;29.59;55.12;99244.91;4897913;29;20060;-88
2022/08/11 08:23:16;;;;;;;14.35;6.70;;;;;;;29.63;54.56;99243.56;4897280;29;20041;-91
2022/08/11 08:25:44;;;;;;;9.68;6.00;;;;;;;29.61;54.99;99234.81;4892133;29;20041;-87
2022/08/11 08:28:13;;;;;;;7.03;6.20;;;;;;;29.62;54.92;99241.88;4898002;29;20059;-90
2022/08/11 08:30:47;;;;;;;7.85;5.88;;;;;;;29.59;55.10;99242.22;4897883;29;20056;-90
2022/08/11 08:33:26;;;;;;;8.13;5.32;;;;;;;29.62;54.47;99241.88;4898298;29;20048;-90
2022/08/11 08:36:14;;;;;;;8.43;5.88;;;;;;;29.62;54.63;99239.19;4899093;29;20039;-91
2022/08/11 08:38:48;;;;;;;7.80;6.10;;;;;;;29.67;54.66;99233.38;4896625;29;20047;-89
2022/08/11 08:41:19;;;;;;;7.38;5.80;;;;;;;29.74;54.36;99240.63;4899990;29;20037;-92
2022/08/11 08:43:50;;;;;;;7.93;6.07;;;;;;;29.79;53.70;99247.38;4901610;29;20072;-90
2022/08/11 08:46:40;;;;;;;9.73;5.95;;;;;;;29.81;53.12;99251.59;4903846;29;20033;-93
2022/08/11 08:49:08;;;;;;;7.78;5.55;;;;;;;29.84;53.01;99255.81;4901659;29;20100;-92
2022/08/11 08:51:38;;;;;;;7.47;5.53;;;;;;;29.88;53.22;99251.84;4898834;29;20056;-92
2022/08/11 08:54:08;;;;;;;9.20;5.35;;;;;;;29.91;53.04;99251.50;4895635;29;20029;-88
2022/08/11 08:56:38;;;;;;;7.43;5.90;;;;;;;29.98;53.17;99257.09;4899023;29;20033;-87
2022/08/11 08:59:09;;;;;;;8.23;5.63;;;;;;;30.00;53.19;99261.31;4897340;29;20036;-89
2022/08/11 09:01:59;;;;;;;8.80;5.65;;;;;;;30.04;52.62;99258.31;4893505;29;20064;-89
2022/08/11 13:06:04;;;;;;;6.82;5.40;;;;;;;32.72;42.38;99083.75;4856312;29;20044;-93
2022/08/11 13:08:36;;;;;;;8.60;6.00;;;;;;;32.75;42.10;99080.69;4851027;29;20509;-92
2022/08/11 13:14:31;;;;;;;6.80;5.85;;;;;;;32.80;41.57;99078.28;4850186;29;20101;-90
2022/08/11 13:20:05;;;;;;;6.55;5.13;;;;;;;32.86;41.00;99072.16;4851496;29;20441;-90
2022/08/11 13:22:31;;;;;;;6.85;5.65;;;;;;;32.87;40.82;99068.41;4849173;29;20387;-91
2022/08/11 13:25:30;;;;;;;7.10;5.75;;;;;;;32.89;40.78;99069.09;4849515;29;20026;-92
2022/08/11 13:28:01;;;;;;;6.82;5.40;;;;;;;32.88;40.13;99061.16;4851054;29;20128;-91
2022/08/11 13:33:31;;;;;;;5.60;4.95;;;;;;;32.95;40.10;99062.97;4850584;29;20445;-92
2022/08/11 13:35:57;;;;;;;6.20;5.22;;;;;;;32.91;40.18;99053.53;4848658;29;20044;-92
2022/08/11 13:38:41;;;;;;;6.53;5.57;;;;;;;32.93;39.52;99048.78;4849692;29;20371;-91
2022/08/11 13:43:57;;;;;;;6.70;5.50;;;;;;;32.99;39.18;99049.09;4852949;29;20033;-92
2022/08/11 13:46:24;;;;;;;7.22;5.40;;;;;;;33.04;38.90;99041.28;4856569;29;20042;-93
2022/08/11 13:48:53;;;;;;;7.15;5.55;;;;;;;33.04;39.35;99039.44;4856145;29;20113;-92
2022/08/11 13:51:32;;;;;;;5.72;4.90;;;;;;;33.07;39.24;99038.22;4857867;29;20065;-93
2022/08/11 13:54:10;;;;;;;8.55;5.20;;;;;;;33.07;39.26;99046.34;4861843;29;20376;-92
2022/08/11 13:56:45;;;;;;;7.03;5.30;;;;;;;33.08;39.52;99032.63;4860583;29;20480;-89
2022/08/11 13:59:13;;;;;;;6.82;5.75;;;;;;;33.08;39.24;99031.78;4857293;29;20045;-91
2022/08/11 14:01:46;;;;;;;6.57;5.38;;;;;;;33.07;38.77;99024.72;4864406;29;20117;-89
2022/08/11 14:04:50;;;;;;;6.55;5.25;;;;;;;33.11;38.60;99025.19;4855056;29;20101;-91
2022/08/11 14:13:56;;;;;;;7.00;5.82;;;;;;;33.14;38.29;99020.25;4873253;29;20084;-92
2022/08/11 14:16:47;;;;;;;6.70;5.63;;;;;;;33.19;37.83;99028.63;4871778;29;20030;-90
2022/08/11 14:19:17;;;;;;;6.50;5.80;;;;;;;33.20;38.01;99024.91;4872745;29;20037;-91
2022/08/11 14:24:30;;;;;;;7.28;5.85;;;;;;;33.20;37.93;99016.81;4868791;29;20040;-91
2022/08/11 14:26:56;;;;;;;6.93;5.75;;;;;;;33.24;38.05;99009.16;4865794;29;20060;-91
2022/08/11 14:29:26;;;;;;;7.20;5.70;;;;;;;33.25;38.03;99018.13;4850783;29;20463;-91
2022/08/11 14:32:07;;;;;;;6.50;5.47;;;;;;;33.25;38.03;99016.22;4850775;29;20040;-91
2022/08/11 14:35:10;;;;;;;9.68;6.25;;;;;;;33.22;37.94;99017.44;4866492;29;20464;-90
2022/08/11 14:37:54;;;;;;;6.75;5.88;;;;;;;33.28;37.96;99006.91;4873165;29;20025;-91
2022/08/11 14:48:49;;;;;;;7.47;5.73;;;;;;;33.31;36.91;98987.63;4870796;29;20053;-92
2022/08/11 14:51:14;;;;;;;6.88;5.53;;;;;;;33.35;37.52;98986.22;4852710;29;20042;-90
2022/08/11 14:53:40;;;;;;;6.07;5.47;;;;;;;33.33;36.99;98986.41;4864567;29;20057;-90
2022/08/11 14:58:55;;;;;;;7.70;5.72;;;;;;;33.37;37.53;98986.88;4870949;29;20044;-89
2022/08/11 15:04:06;;;;;;;6.05;5.45;;;;;;;33.37;38.04;98972.50;4869170;29;20036;-91
2022/08/11 15:06:37;;;;;;;6.97;6.25;;;;;;;33.39;37.79;98974.00;4867086;29;20022;-92
2022/08/11 15:09:21;;;;;;;8.23;5.20;;;;;;;33.38;37.49;98966.91;4852176;29;20048;-91
2022/08/11 15:17:17;;;;;;;6.57;5.88;;;;;;;33.43;37.35;98959.09;4868683;29;20040;-92
2022/08/11 15:24:18;;;;;;;6.82;5.22;;;;;;;33.47;36.60;98959.53;4865681;29;20345;-91
2022/08/11 15:25:15;;;;;;;6.43;5.50;;;;;;;33.48;37.34;98955.81;4868055;29;20367;-92
2022/08/11 15:39:26;;;;;;;6.85;6.15;;;;;;;33.57;36.42;98946.59;4874023;29;20116;-91
2022/08/11 15:48:01;;;;;;;6.65;5.82;;;;;;;33.55;35.47;98934.28;4867213;29;20535;-91
2022/08/11 15:50:31;;;;;;;6.25;5.38;;;;;;;33.55;36.80;98937.81;4864715;29;20040;-89
2022/08/11 15:53:06;;;;;;;6.28;5.68;;;;;;;33.56;35.75;98935.97;4869833;29;20038;-90
2022/08/11 15:55:34;;;;;;;7.93;5.57;;;;;;;33.55;35.51;98928.88;4865788;29;20026;-91
2022/08/11 16:04:11;;;;;;;6.47;5.13;;;;;;;33.57;34.90;98933.09;4872116;29;20040;-90
2022/08/11 16:06:43;;;;;;;5.78;5.18;;;;;;;33.58;34.07;98929.34;4868089;29;20033;-90
2022/08/11 16:09:10;;;;;;;6.80;5.15;;;;;;;33.59;34.42;98920.19;4868091;29;20061;-89
2022/08/11 16:11:38;;;;;;;6.75;5.40;;;;;;;33.61;32.73;98917.31;4866363;29;20029;-91
2022/08/11 16:17:32;;;;;;;;;;;;;;;33.64;33.94;98927.72;4872009;29;20049;-90
2022/08/11 16:20:02;;;;;;;5.93;5.32;;;;;;;33.69;33.83;98924.47;4868295;29;20249;-89
